createdAt,value
2023-05-21T00:01:27.557Z,1.30
2023-05-21T00:03:54.474Z,1.15
2023-05-21T00:06:23.235Z,1.50
2023-05-21T00:08:50.210Z,1.52
2023-05-21T00:11:17.070Z,1.40
2023-05-21T00:13:43.954Z,1.27
2023-05-21T00:16:11.304Z,1.50
2023-05-21T00:18:39.498Z,1.15
2023-05-21T00:21:06.733Z,1.02
2023-05-21T00:23:34.123Z,1.52
2023-05-21T00:26:01.381Z,1.75
2023-05-21T00:28:28.409Z,1.50
2023-05-21T00:30:55.571Z,1.65
2023-05-21T00:33:22.906Z,1.52
2023-05-21T00:35:49.759Z,1.70
2023-05-21T00:38:18.551Z,1.30
2023-05-21T00:40:45.454Z,1.33
2023-05-21T00:43:14.291Z,1.38
2023-05-21T00:45:44.715Z,1.63
2023-05-21T00:48:12.775Z,1.58
2023-05-21T00:50:40.722Z,1.35
2023-05-21T00:53:15.424Z,1.27
2023-05-21T00:55:42.352Z,1.45
2023-05-21T00:58:09.276Z,1.58
2023-05-21T01:00:37.487Z,1.70
2023-05-21T01:03:05.092Z,1.40
2023-05-21T01:05:32.564Z,1.60
2023-05-21T01:07:59.875Z,1.80
2023-05-21T01:10:27.295Z,2.05
2023-05-21T01:12:56.067Z,1.40
2023-05-21T01:15:23.236Z,1.50
2023-05-21T01:17:51.599Z,1.25
2023-05-21T01:20:20.230Z,1.83
2023-05-21T01:23:02.394Z,1.80
2023-05-21T01:25:33.233Z,2.05
2023-05-21T01:28:00.176Z,1.98
2023-05-21T01:30:27.670Z,1.75
2023-05-21T01:33:05.104Z,1.60
2023-05-21T01:36:04.377Z,1.60
2023-05-21T01:38:41.492Z,1.58
2023-05-21T01:41:13.544Z,1.75
2023-05-21T01:43:44.250Z,2.20
2023-05-21T01:46:15.277Z,1.73
2023-05-21T01:48:43.638Z,1.65
2023-05-21T01:51:10.788Z,1.67
2023-05-21T01:53:40.748Z,1.90
2023-05-21T01:56:08.121Z,2.33
2023-05-21T01:58:35.022Z,1.73
2023-05-21T02:01:02.864Z,1.70
2023-05-21T02:03:31.269Z,2.70
2023-05-21T02:05:58.617Z,2.13
2023-05-21T02:08:25.678Z,2.20
2023-05-21T02:10:52.819Z,2.22
2023-05-21T02:13:21.435Z,2.40
2023-05-21T02:15:49.248Z,1.75
2023-05-21T02:18:16.936Z,2.40
2023-05-21T02:20:44.003Z,1.77
2023-05-21T02:23:17.361Z,1.80
2023-05-21T02:25:44.462Z,1.95
2023-05-21T02:28:14.320Z,1.80
2023-05-21T02:30:41.195Z,2.20
2023-05-21T02:33:09.206Z,1.85
2023-05-21T02:35:36.792Z,2.15
2023-05-21T02:38:03.909Z,2.63
2023-05-21T02:40:30.902Z,1.88
2023-05-21T02:42:57.716Z,2.17
2023-05-21T02:45:24.869Z,2.72
2023-05-21T02:47:51.776Z,1.70
2023-05-21T02:50:18.837Z,2.00
2023-05-21T02:52:55.889Z,2.42
2023-05-21T02:55:23.318Z,2.05
2023-05-21T02:57:50.128Z,2.15
2023-05-21T03:00:17.265Z,1.77
2023-05-21T03:03:10.021Z,1.98
2023-05-21T03:05:37.268Z,2.30
2023-05-21T03:08:04.409Z,2.70
2023-05-21T03:10:31.554Z,2.30
2023-05-21T03:12:58.576Z,2.70
2023-05-21T03:15:26.164Z,1.95
2023-05-21T03:17:54.606Z,2.50
2023-05-21T03:20:21.495Z,2.58
2023-05-21T03:23:16.681Z,2.58
2023-05-21T03:25:44.023Z,2.15
2023-05-21T03:28:10.926Z,2.33
2023-05-21T03:30:38.532Z,2.13
2023-05-21T03:33:06.626Z,2.47
2023-05-21T03:35:33.915Z,2.05
2023-05-21T03:38:01.828Z,2.33
2023-05-21T03:40:28.705Z,2.60
2023-05-21T03:42:55.614Z,2.63
2023-05-21T03:45:22.430Z,2.40
2023-05-21T03:47:49.481Z,2.28
2023-05-21T03:50:16.888Z,2.08
2023-05-21T03:52:43.858Z,2.70
2023-05-21T03:55:10.913Z,2.53
2023-05-21T03:57:37.826Z,2.95
2023-05-21T04:00:06.376Z,2.65
2023-05-21T04:02:33.297Z,2.67
2023-05-21T04:05:00.319Z,2.90
2023-05-21T04:07:27.311Z,2.80
2023-05-21T04:09:54.303Z,2.58
2023-05-21T04:12:21.536Z,3.10
2023-05-21T04:14:48.596Z,2.80
2023-05-21T04:17:15.475Z,2.83
2023-05-21T04:19:42.341Z,2.67
2023-05-21T04:22:11.275Z,3.28
2023-05-21T04:24:38.578Z,2.58
2023-05-21T04:27:06.064Z,2.83
2023-05-21T04:29:32.909Z,2.83
2023-05-21T04:31:59.799Z,2.72
2023-05-21T04:34:26.634Z,2.58
2023-05-21T04:36:53.988Z,2.60
2023-05-21T04:39:20.996Z,2.58
2023-05-21T04:41:50.794Z,2.97
2023-05-21T04:44:25.661Z,2.47
2023-05-21T04:46:52.771Z,2.67
2023-05-21T04:49:21.003Z,2.70
2023-05-21T04:51:54.736Z,2.13
2023-05-21T04:54:21.556Z,2.17
2023-05-21T04:56:48.515Z,2.22
2023-05-21T04:59:16.063Z,2.70
2023-05-21T05:01:44.046Z,2.35
2023-05-21T05:04:11.096Z,2.47
2023-05-21T05:06:37.954Z,1.92
2023-05-21T05:09:04.880Z,2.13
2023-05-21T05:11:31.791Z,2.50
2023-05-21T05:13:58.673Z,2.15
2023-05-21T05:16:27.977Z,2.70
2023-05-21T05:18:55.131Z,1.92
2023-05-21T05:21:23.598Z,2.58
2023-05-21T05:23:50.504Z,1.33
2023-05-21T05:26:17.404Z,1.88
2023-05-21T05:28:45.838Z,2.10
2023-05-21T05:31:12.785Z,2.05
2023-05-21T05:33:41.050Z,2.47
2023-05-21T05:36:08.308Z,2.72
2023-05-21T05:38:36.066Z,1.92
2023-05-21T05:41:02.948Z,1.75
2023-05-21T05:43:32.617Z,1.85
2023-05-21T05:46:00.184Z,2.10
2023-05-21T05:48:27.159Z,2.08
2023-05-21T05:50:57.162Z,1.80
2023-05-21T05:53:24.403Z,1.77
2023-05-21T05:55:51.221Z,2.92
2023-05-21T05:58:18.102Z,1.98
2023-05-21T06:00:45.061Z,1.75
2023-05-21T06:03:12.792Z,2.03
2023-05-21T06:05:39.941Z,2.30
2023-05-21T06:08:07.046Z,1.98
2023-05-21T06:10:34.039Z,2.28
2023-05-21T06:13:00.982Z,1.50
2023-05-21T06:15:27.938Z,1.90
2023-05-21T06:17:54.796Z,2.00
2023-05-21T06:20:21.757Z,1.65
2023-05-21T06:22:48.613Z,1.92
2023-05-21T06:25:16.220Z,2.20
2023-05-21T06:27:43.246Z,1.50
2023-05-21T06:30:10.521Z,1.65
2023-05-21T06:32:37.543Z,1.70
2023-05-21T06:35:04.840Z,1.67
2023-05-21T06:37:31.697Z,1.85
2023-05-21T06:39:58.513Z,1.73
2023-05-21T06:42:25.630Z,1.63
2023-05-21T06:44:52.488Z,1.83
2023-05-21T06:47:19.360Z,1.77
2023-05-21T06:49:46.250Z,1.67
2023-05-21T06:52:13.121Z,1.67
2023-05-21T06:54:40.020Z,1.70
2023-05-21T06:57:06.931Z,2.10
2023-05-21T06:59:33.788Z,1.63
2023-05-21T07:02:02.331Z,1.90
2023-05-21T07:04:30.926Z,1.58
2023-05-21T07:06:57.815Z,1.75
2023-05-21T07:09:24.629Z,1.30
2023-05-21T07:11:53.016Z,1.60
2023-05-21T07:14:19.961Z,1.73
2023-05-21T07:16:46.899Z,2.05
2023-05-21T07:19:15.341Z,1.58
2023-05-21T07:21:42.428Z,1.67
2023-05-21T07:24:09.332Z,2.15
2023-05-21T07:26:36.311Z,1.45
2023-05-21T07:29:06.579Z,1.38
2023-05-21T07:31:36.877Z,1.52
2023-05-21T07:34:03.837Z,2.20
2023-05-21T07:36:31.207Z,1.70
2023-05-21T07:38:58.085Z,1.75
2023-05-21T07:41:25.001Z,1.63
2023-05-21T07:43:52.003Z,2.08
2023-05-21T07:46:18.967Z,1.95
2023-05-21T07:48:46.517Z,1.75
2023-05-21T07:51:13.918Z,1.83
2023-05-21T07:53:41.040Z,1.70
2023-05-21T07:56:08.050Z,2.25
2023-05-21T07:58:35.309Z,1.60
2023-05-21T08:01:02.951Z,2.03
2023-05-21T08:03:33.640Z,1.83
2023-05-21T08:06:00.711Z,1.88
2023-05-21T08:08:27.641Z,3.20
2023-05-21T08:10:54.782Z,2.08
2023-05-21T08:13:21.754Z,2.13
2023-05-21T08:15:51.978Z,1.83
2023-05-21T08:18:20.576Z,1.33
2023-05-21T08:20:48.422Z,2.22
2023-05-21T08:23:15.414Z,1.95
2023-05-21T08:25:42.353Z,2.22
2023-05-21T08:28:09.268Z,1.77
2023-05-21T08:30:38.398Z,1.63
2023-05-21T08:33:05.405Z,2.17
2023-05-21T08:35:32.283Z,2.13
2023-05-21T08:37:59.521Z,2.42
2023-05-21T08:40:26.422Z,2.72
2023-05-21T08:42:53.459Z,1.60
2023-05-21T08:45:23.797Z,2.15
2023-05-21T08:47:59.640Z,2.38
2023-05-21T08:50:28.108Z,2.20
2023-05-21T08:52:55.530Z,1.98
2023-05-21T08:55:23.658Z,2.10
2023-05-21T08:57:52.408Z,2.75
2023-05-21T09:00:21.134Z,2.03
2023-05-21T09:02:48.242Z,2.05
2023-05-21T09:05:16.324Z,2.60
2023-05-21T09:07:53.036Z,1.67
2023-05-21T09:10:24.541Z,2.60
2023-05-21T09:12:51.495Z,1.83
2023-05-21T09:15:18.759Z,1.90
2023-05-21T09:17:49.063Z,2.75
2023-05-21T09:20:16.664Z,2.42
2023-05-21T09:22:50.838Z,2.03
2023-05-21T09:25:23.099Z,3.05
2023-05-21T09:27:50.450Z,2.22
2023-05-21T09:30:18.167Z,2.40
2023-05-21T09:32:46.148Z,2.42
2023-05-21T09:35:15.143Z,2.30
2023-05-21T09:37:45.993Z,2.63
2023-05-21T09:40:15.362Z,3.33
2023-05-21T09:42:47.884Z,3.20
2023-05-21T09:45:26.162Z,2.38
2023-05-21T09:47:54.829Z,3.05
2023-05-21T09:50:28.079Z,2.42
2023-05-21T09:52:56.167Z,2.63
2023-05-21T09:55:23.956Z,4.57
2023-05-21T09:57:51.461Z,2.67
2023-05-21T10:00:27.441Z,3.08
2023-05-21T10:02:55.840Z,2.95
2023-05-21T10:05:27.602Z,2.70
2023-05-21T10:08:02.232Z,2.63
2023-05-21T10:10:30.983Z,3.72
2023-05-21T10:13:09.072Z,2.85
2023-05-21T10:15:42.398Z,3.42
2023-05-21T10:18:10.551Z,3.80
2023-05-21T10:20:38.355Z,3.15
2023-05-21T10:23:05.578Z,2.83
2023-05-21T10:25:32.840Z,2.85
2023-05-21T10:27:59.684Z,3.20
2023-05-21T10:30:27.258Z,3.60
2023-05-21T10:32:56.658Z,3.25
2023-05-21T10:35:24.048Z,3.75
2023-05-21T10:37:52.018Z,3.90
2023-05-21T10:40:18.915Z,4.57
2023-05-21T10:42:58.082Z,4.35
2023-05-21T10:46:06.801Z,5.40
2023-05-21T10:48:42.499Z,4.07
2023-05-21T10:51:25.772Z,4.90
2023-05-21T10:54:14.399Z,4.57
2023-05-21T10:56:59.742Z,4.53
2023-05-21T10:59:36.354Z,4.95
2023-05-21T11:02:05.714Z,5.07
2023-05-21T11:04:33.011Z,5.45
2023-05-21T11:06:59.926Z,4.85
2023-05-21T11:09:27.052Z,4.25
2023-05-21T11:11:58.753Z,4.30
2023-05-21T11:14:43.048Z,4.90
2023-05-21T11:17:16.361Z,5.63
2023-05-21T11:19:47.336Z,5.03
2023-05-21T11:22:21.833Z,5.07
2023-05-21T11:24:51.206Z,4.75
2023-05-21T11:27:39.789Z,4.75
2023-05-21T11:30:15.852Z,5.68
2023-05-21T11:33:10.866Z,5.72
2023-05-21T11:35:59.407Z,6.22
2023-05-21T11:38:31.696Z,5.10
2023-05-21T11:41:03.546Z,5.13
2023-05-21T11:43:31.035Z,4.60
2023-05-21T11:45:59.292Z,4.75
2023-05-21T11:48:28.429Z,4.70
2023-05-21T11:50:57.497Z,6.13
2023-05-21T11:53:24.415Z,5.65
2023-05-21T11:56:03.671Z,5.13
2023-05-21T11:58:31.887Z,6.03
2023-05-21T12:00:58.726Z,6.95
2023-05-21T12:03:27.294Z,6.10
2023-05-21T12:05:54.715Z,5.32
2023-05-21T12:08:28.061Z,4.72
2023-05-21T12:13:23.389Z,5.38
2023-05-21T12:15:50.704Z,5.30
2023-05-21T12:18:17.608Z,5.72
2023-05-21T12:20:44.835Z,6.63
2023-05-21T12:23:30.362Z,5.40
2023-05-21T12:25:57.381Z,5.88
2023-05-21T12:28:24.879Z,6.50
2023-05-21T12:30:53.496Z,5.93
2023-05-21T12:33:21.630Z,4.65
2023-05-21T12:35:50.452Z,7.18
2023-05-21T12:38:17.539Z,5.10
2023-05-21T12:40:45.690Z,6.35
2023-05-21T12:43:13.050Z,5.90
2023-05-21T12:45:40.635Z,5.82
2023-05-21T12:48:08.233Z,5.45
2023-05-21T12:50:41.367Z,6.45
2023-05-21T12:53:11.124Z,5.38
2023-05-21T12:55:37.973Z,5.75
2023-05-21T12:58:10.669Z,6.28
2023-05-21T13:00:38.636Z,5.60
2023-05-21T13:03:16.516Z,6.00
2023-05-21T13:05:43.757Z,5.35
2023-05-21T13:08:11.325Z,5.60
2023-05-21T13:10:40.973Z,4.97
2023-05-21T13:13:07.896Z,5.18
2023-05-21T13:15:34.820Z,5.68
2023-05-21T13:18:02.151Z,5.18
2023-05-21T13:20:29.512Z,5.72
2023-05-21T13:22:56.645Z,5.57
2023-05-21T13:25:28.387Z,6.18
2023-05-21T13:27:56.125Z,6.75
2023-05-21T13:30:23.096Z,7.55
2023-05-21T13:32:50.264Z,7.85
2023-05-21T13:35:17.670Z,6.20
2023-05-21T13:37:44.974Z,5.85
2023-05-21T13:40:16.977Z,5.03
2023-05-21T13:42:48.806Z,5.15
2023-05-21T13:45:18.086Z,6.05
2023-05-21T13:47:46.371Z,6.10
2023-05-21T13:50:13.969Z,6.57
2023-05-21T13:52:41.003Z,5.55
2023-05-21T13:55:08.478Z,4.68
2023-05-21T13:57:35.386Z,6.18
2023-05-21T14:00:03.233Z,5.30
2023-05-21T14:02:30.257Z,5.55
2023-05-21T14:04:57.822Z,5.30
2023-05-21T14:07:24.721Z,4.63
2023-05-21T14:09:52.403Z,6.88
2023-05-21T14:12:19.392Z,5.68
2023-05-21T14:14:46.246Z,6.43
2023-05-21T14:17:13.158Z,5.57
2023-05-21T14:19:40.068Z,5.72
2023-05-21T14:22:06.901Z,6.55
2023-05-21T14:24:33.755Z,6.15
2023-05-21T14:27:00.724Z,6.97
2023-05-21T14:29:27.574Z,6.97
2023-05-21T14:31:54.509Z,6.28
2023-05-21T14:34:21.425Z,6.60
2023-05-21T14:36:48.357Z,6.47
2023-05-21T14:39:15.501Z,4.93
2023-05-21T14:41:42.692Z,5.70
2023-05-21T14:44:09.566Z,5.75
2023-05-21T14:46:36.858Z,5.53
2023-05-21T14:49:04.005Z,5.28
2023-05-21T14:51:31.694Z,5.00
2023-05-21T14:53:58.878Z,5.80
2023-05-21T14:56:28.131Z,5.22
2023-05-21T14:58:57.329Z,5.80
2023-05-21T15:01:24.345Z,5.15
2023-05-21T15:03:51.632Z,5.32
2023-05-21T15:06:18.566Z,5.78
2023-05-21T15:08:45.418Z,6.70
2023-05-21T15:11:12.269Z,6.22
2023-05-21T15:13:39.615Z,5.78
2023-05-21T15:16:06.825Z,6.13
2023-05-21T15:18:34.155Z,7.00
2023-05-21T15:21:01.198Z,6.78
2023-05-21T15:23:28.368Z,5.95
2023-05-21T15:25:55.463Z,5.30
2023-05-21T15:28:23.182Z,8.00
2023-05-21T15:30:50.363Z,6.13
2023-05-21T15:33:17.489Z,6.05
2023-05-21T15:35:44.885Z,6.82
2023-05-21T15:38:12.151Z,6.85
2023-05-21T15:47:57.747Z,6.18
2023-05-21T15:50:25.841Z,7.93
2023-05-21T15:52:53.549Z,6.95
2023-05-21T15:55:20.997Z,8.23
2023-05-21T15:57:47.913Z,6.47
2023-05-21T16:00:15.178Z,6.90
2023-05-21T16:02:42.294Z,6.55
2023-05-21T16:05:09.646Z,6.70
2023-05-21T16:07:38.230Z,6.32
2023-05-21T16:10:06.509Z,5.95
2023-05-21T16:12:33.503Z,6.10
2023-05-21T16:15:00.808Z,6.40
2023-05-21T16:17:27.987Z,7.15
2023-05-21T16:19:54.874Z,7.05
2023-05-21T16:22:23.255Z,6.60
2023-05-21T16:24:50.246Z,7.65
2023-05-21T16:27:17.165Z,6.63
2023-05-21T16:29:44.309Z,6.55
2023-05-21T16:32:13.194Z,6.90
2023-05-21T16:34:40.168Z,6.82
2023-05-21T16:37:09.097Z,6.00
2023-05-21T16:39:36.008Z,6.00
2023-05-21T16:42:03.093Z,6.20
2023-05-21T16:44:31.725Z,5.47
2023-05-21T16:46:59.841Z,7.40
2023-05-21T16:49:27.728Z,5.63
2023-05-21T16:51:54.723Z,7.75
2023-05-21T16:54:21.840Z,6.35
2023-05-21T16:56:48.804Z,6.22
2023-05-21T16:59:15.906Z,6.05
2023-05-21T17:01:42.978Z,5.78
2023-05-21T17:04:10.009Z,6.60
2023-05-21T17:06:36.952Z,6.68
2023-05-21T17:09:04.100Z,7.30
2023-05-21T17:11:31.071Z,7.82
2023-05-21T17:13:58.002Z,7.15
2023-05-21T17:16:26.252Z,6.78
2023-05-21T17:18:53.183Z,7.03
2023-05-21T17:21:20.155Z,7.35
2023-05-21T17:23:47.276Z,7.72
2023-05-21T17:26:14.528Z,7.30
2023-05-21T17:28:41.656Z,8.43
2023-05-21T17:31:08.905Z,6.85
2023-05-21T17:33:37.355Z,7.32
2023-05-21T17:36:05.003Z,7.55
2023-05-21T17:38:31.952Z,8.63
2023-05-21T17:40:59.254Z,8.75
2023-05-21T17:43:27.635Z,7.68
2023-05-21T17:45:54.550Z,5.75
2023-05-21T17:48:21.664Z,6.07
2023-05-21T17:50:48.736Z,6.38
2023-05-21T17:53:16.347Z,6.22
2023-05-21T17:55:43.259Z,6.10
2023-05-21T17:58:10.190Z,7.05
2023-05-21T18:00:37.390Z,6.32
2023-05-21T18:03:04.623Z,10.10
2023-05-21T18:05:31.709Z,8.88
2023-05-21T18:08:01.096Z,7.47
2023-05-21T18:10:28.046Z,6.63
2023-05-21T18:12:55.029Z,6.18
2023-05-21T18:15:21.930Z,8.10
2023-05-21T18:17:48.941Z,7.47
2023-05-21T18:20:16.011Z,8.20
2023-05-21T18:22:43.956Z,7.22
2023-05-21T18:25:11.205Z,7.07
2023-05-21T18:27:38.103Z,7.00
2023-05-21T18:30:06.471Z,6.28
2023-05-21T18:32:34.450Z,8.00
2023-05-21T18:35:01.374Z,8.25
2023-05-21T18:37:29.286Z,7.78
2023-05-21T18:39:56.167Z,7.75
2023-05-21T18:42:23.053Z,7.70
2023-05-21T18:44:53.003Z,7.28
2023-05-21T18:47:19.934Z,7.53
2023-05-21T18:49:47.333Z,7.43
2023-05-21T18:52:14.348Z,7.85
2023-05-21T18:54:41.191Z,7.85
2023-05-21T18:57:08.083Z,7.90
2023-05-21T18:59:35.308Z,8.77
2023-05-21T19:02:04.010Z,8.02
2023-05-21T19:04:31.425Z,9.55
2023-05-21T19:06:58.703Z,8.15
2023-05-21T19:09:27.886Z,9.00
2023-05-21T19:11:55.590Z,9.77
2023-05-21T19:14:22.476Z,8.35
2023-05-21T19:16:49.354Z,8.60
2023-05-21T19:19:16.854Z,8.85
2023-05-21T19:21:43.859Z,9.00
2023-05-21T19:24:10.890Z,8.07
2023-05-21T19:26:37.805Z,8.15
2023-05-21T19:29:04.798Z,8.05
2023-05-21T19:31:31.751Z,7.32
2023-05-21T19:33:59.195Z,7.88
2023-05-21T19:36:26.861Z,7.75
2023-05-21T19:38:54.682Z,9.90
2023-05-21T19:41:22.092Z,7.85
2023-05-21T19:43:48.946Z,8.88
2023-05-21T19:46:19.749Z,10.23
2023-05-21T19:48:47.458Z,8.15
2023-05-21T19:51:14.360Z,8.07
2023-05-21T19:53:41.389Z,9.38
2023-05-21T19:56:08.300Z,10.35
2023-05-21T19:58:35.298Z,10.25
2023-05-21T20:01:03.544Z,9.45
2023-05-21T20:03:37.750Z,9.00
2023-05-21T20:06:05.037Z,10.05
2023-05-21T20:08:32.081Z,10.70
2023-05-21T20:11:01.124Z,9.77
2023-05-21T20:13:28.132Z,10.00
2023-05-21T20:15:55.040Z,9.45
2023-05-21T20:18:24.506Z,9.70
2023-05-21T20:20:51.585Z,10.98
2023-05-21T20:23:18.517Z,10.73
2023-05-21T20:25:45.407Z,9.80
2023-05-21T20:28:12.450Z,10.57
2023-05-21T20:30:53.723Z,10.27
2023-05-21T20:33:20.793Z,11.10
2023-05-21T20:35:47.679Z,10.27
2023-05-21T20:38:15.898Z,9.27
2023-05-21T20:40:44.136Z,9.48
2023-05-21T20:43:18.777Z,9.98
2023-05-21T20:45:46.414Z,10.48
2023-05-21T20:48:14.868Z,9.50
2023-05-21T20:50:41.965Z,10.77
2023-05-21T20:53:08.886Z,9.85
2023-05-21T20:55:35.786Z,10.23
2023-05-21T20:58:03.993Z,10.80
2023-05-21T21:00:31.977Z,11.05
2023-05-21T21:03:01.101Z,10.95
2023-05-21T21:05:28.436Z,11.90
2023-05-21T21:07:56.082Z,11.98
2023-05-21T21:10:23.124Z,11.02
2023-05-21T21:12:50.361Z,11.68
2023-05-21T21:15:17.383Z,12.65
2023-05-21T21:17:44.367Z,11.65
2023-05-21T21:20:12.887Z,12.57
2023-05-21T21:22:40.046Z,11.60
2023-05-21T21:25:07.304Z,11.40
2023-05-21T21:27:34.745Z,11.50
2023-05-21T21:30:01.687Z,12.55
2023-05-21T21:32:28.689Z,12.15
2023-05-21T21:34:55.635Z,11.43
2023-05-21T21:37:22.608Z,11.75
2023-05-21T21:39:49.467Z,11.70
2023-05-21T21:42:16.350Z,12.23
2023-05-21T21:44:43.279Z,13.07
2023-05-21T21:47:10.736Z,13.15
2023-05-21T21:49:37.673Z,11.73
2023-05-21T21:52:04.820Z,12.13
2023-05-21T21:54:31.666Z,12.50
2023-05-21T21:56:58.533Z,11.88
2023-05-21T21:59:25.544Z,11.90
2023-05-21T22:01:52.722Z,12.85
2023-05-21T22:04:19.658Z,13.07
2023-05-21T22:06:46.772Z,11.77
2023-05-21T22:09:14.044Z,11.68
2023-05-21T22:11:41.045Z,12.90
2023-05-21T22:14:08.559Z,12.77
2023-05-21T22:16:36.542Z,11.65
2023-05-21T22:19:03.853Z,11.60
2023-05-21T22:21:32.954Z,12.85
2023-05-21T22:24:00.451Z,11.65
2023-05-21T22:26:27.304Z,12.48
2023-05-21T22:28:54.169Z,14.00
2023-05-21T22:31:21.199Z,11.75
2023-05-21T22:33:48.077Z,12.93
2023-05-21T22:36:14.924Z,11.82
2023-05-21T22:38:41.802Z,11.35
2023-05-21T22:41:09.959Z,11.82
2023-05-21T22:43:37.434Z,12.55
2023-05-21T22:46:04.377Z,13.80
2023-05-21T22:48:31.314Z,12.68
2023-05-21T22:50:58.411Z,11.27
2023-05-21T22:53:26.018Z,10.00
2023-05-21T22:55:53.208Z,10.38
2023-05-21T22:58:20.154Z,9.13
2023-05-21T23:00:48.099Z,11.30
2023-05-21T23:03:15.085Z,11.00
2023-05-21T23:05:42.085Z,10.88
2023-05-21T23:08:08.978Z,9.63
2023-05-21T23:10:36.036Z,9.88
2023-05-21T23:13:02.977Z,10.00
2023-05-21T23:15:30.563Z,9.25
2023-05-21T23:17:57.806Z,10.07
2023-05-21T23:20:24.813Z,9.82
2023-05-21T23:22:52.389Z,9.02
2023-05-21T23:25:19.173Z,9.93
2023-05-21T23:27:46.153Z,9.50
2023-05-21T23:30:13.118Z,10.25
2023-05-21T23:32:40.023Z,8.73
2023-05-21T23:35:08.152Z,10.13
2023-05-21T23:37:34.996Z,9.57
2023-05-21T23:40:01.833Z,9.70
2023-05-21T23:42:28.830Z,9.00
2023-05-21T23:44:55.719Z,10.32
2023-05-21T23:47:22.513Z,10.57
2023-05-21T23:49:49.510Z,10.10
2023-05-21T23:52:18.216Z,9.13
2023-05-21T23:54:45.110Z,9.63
2023-05-21T23:57:13.303Z,11.38
2023-05-21T23:59:40.542Z,10.65
